Time;durP1;ratioP1;P1;durP2;ratioP2;P2;SDS_P1;SDS_P2;PMS_P1;PMS_P2;Temp;Humidity;BMP_temperature;BMP_pressure;BME280_temperature;BME280_humidity;BME280_pressure;Samples;Min_cycle;Max_cycle;Signal;HPM_P1;HPM_P2
2022/12/31 00:02:15;;;;;;;1.42;0.60;;;21.00;48.90;;;;;;5006290;28;20034;-53
2022/12/31 00:04:41;;;;;;;0.93;0.50;;;21.00;48.90;;;;;;5022081;28;20026;-53
2022/12/31 00:07:06;;;;;;;1.30;0.63;;;21.00;49.00;;;;;;5026107;28;20026;-55
2022/12/31 00:09:32;;;;;;;3.00;0.77;;;21.00;49.00;;;;;;5032117;28;20026;-52
2022/12/31 00:11:58;;;;;;;1.33;0.60;;;21.00;49.10;;;;;;5021966;28;20057;-57
2022/12/31 00:14:24;;;;;;;2.30;0.60;;;21.00;49.20;;;;;;5022523;28;20052;-53
2022/12/31 00:16:50;;;;;;;0.85;0.52;;;21.00;49.20;;;;;;5022394;28;20079;-53
2022/12/31 00:19:16;;;;;;;0.93;0.50;;;21.00;49.20;;;;;;5026916;28;20080;-54
2022/12/31 00:21:42;;;;;;;1.33;0.55;;;21.00;49.30;;;;;;5024046;28;20025;-53
2022/12/31 00:24:11;;;;;;;0.88;0.47;;;21.00;49.30;;;;;;5019196;28;20033;-55
2022/12/31 00:26:37;;;;;;;1.08;0.40;;;21.00;49.40;;;;;;5026100;28;20111;-54
2022/12/31 00:29:04;;;;;;;1.45;0.52;;;21.00;49.40;;;;;;5020219;28;20025;-55
2022/12/31 00:31:32;;;;;;;1.38;0.43;;;21.00;49.50;;;;;;5026784;28;20132;-53
2022/12/31 00:33:59;;;;;;;0.70;0.40;;;21.00;49.40;;;;;;5023238;28;20449;-54
2022/12/31 00:36:30;;;;;;;0.60;0.40;;;21.00;49.50;;;;;;5005592;28;20357;-54
2022/12/31 00:38:58;;;;;;;0.50;0.30;;;21.00;49.50;;;;;;5023904;28;20128;-54
2022/12/31 00:41:24;;;;;;;0.95;0.30;;;21.00;49.50;;;;;;5026109;28;20048;-56
2022/12/31 00:43:50;;;;;;;0.60;0.40;;;21.00;49.50;;;;;;5025862;28;20352;-55
2022/12/31 00:46:16;;;;;;;0.60;0.40;;;21.00;49.50;;;;;;5021843;28;20464;-52
2022/12/31 00:48:43;;;;;;;0.55;0.30;;;20.90;49.50;;;;;;5029054;28;20057;-53
2022/12/31 00:51:11;;;;;;;0.85;0.40;;;20.90;49.50;;;;;;5006752;28;20034;-55
2022/12/31 00:53:38;;;;;;;0.40;0.20;;;21.00;49.60;;;;;;5018591;28;20124;-56
2022/12/31 00:56:15;;;;;;;0.38;0.30;;;20.90;49.60;;;;;;5021387;28;20038;-53
2022/12/31 00:58:42;;;;;;;0.38;0.20;;;20.90;49.60;;;;;;5021465;28;20041;-51
2022/12/31 01:01:17;;;;;;;0.30;0.30;;;20.90;49.60;;;;;;5023404;28;20091;-55
2022/12/31 01:03:43;;;;;;;0.98;0.40;;;20.90;49.60;;;;;;5020366;28;20065;-52
2022/12/31 01:06:09;;;;;;;0.90;0.30;;;20.90;49.60;;;;;;5027071;28;20044;-56
2022/12/31 01:08:35;;;;;;;0.63;0.32;;;20.90;49.60;;;;;;5027921;28;20112;-51
2022/12/31 01:13:46;;;;;;;;;;;20.90;49.60;;;;;;5018708;28;20346;-54
2022/12/31 01:16:13;;;;;;;0.30;0.20;;;20.90;49.60;;;;;;5018636;28;19913;-55
2022/12/31 01:18:40;;;;;;;0.45;0.30;;;20.90;50.20;;;;;;5023091;28;20058;-53
2022/12/31 01:21:08;;;;;;;0.73;0.30;;;20.90;49.60;;;;;;5021191;28;20516;-56
2022/12/31 01:23:34;;;;;;;0.63;0.30;;;20.80;49.60;;;;;;5024912;28;20018;-56
2022/12/31 01:26:02;;;;;;;0.93;0.30;;;20.80;49.60;;;;;;5020625;28;20021;-55
2022/12/31 01:28:28;;;;;;;0.57;0.30;;;20.80;49.60;;;;;;5018647;28;20028;-56
2022/12/31 01:30:55;;;;;;;0.45;0.30;;;20.80;49.60;;;;;;5018049;28;20072;-54
2022/12/31 01:33:21;;;;;;;0.40;0.30;;;20.80;49.70;;;;;;5022493;28;20727;-55
2022/12/31 01:35:47;;;;;;;0.68;0.45;;;20.80;49.70;;;;;;5017894;28;20022;-53
2022/12/31 01:38:13;;;;;;;0.70;0.30;;;20.80;49.70;;;;;;5018195;28;20092;-54
2022/12/31 01:40:40;;;;;;;1.02;0.38;;;20.80;49.70;;;;;;5021981;28;20465;-54
2022/12/31 01:43:19;;;;;;;0.68;0.28;;;20.80;49.70;;;;;;5020252;28;20418;-53
2022/12/31 01:45:48;;;;;;;0.30;0.30;;;20.80;49.70;;;;;;5019719;28;20044;-53
2022/12/31 01:48:22;;;;;;;0.82;0.30;;;20.80;49.70;;;;;;5026018;28;20029;-52
2022/12/31 01:50:49;;;;;;;0.85;0.40;;;20.80;49.70;;;;;;5022062;28;20032;-52
2022/12/31 01:53:17;;;;;;;0.30;0.20;;;20.80;49.70;;;;;;5019015;28;20037;-54
2022/12/31 01:55:48;;;;;;;0.50;0.28;;;20.70;49.70;;;;;;5023584;28;20045;-55
2022/12/31 01:58:20;;;;;;;0.55;0.40;;;20.80;49.80;;;;;;5021025;28;20384;-53
2022/12/31 02:00:48;;;;;;;0.52;0.20;;;20.80;49.80;;;;;;5019189;28;20338;-54
2022/12/31 02:03:14;;;;;;;0.57;0.25;;;20.80;49.80;;;;;;5020486;28;20501;-50
2022/12/31 02:05:46;;;;;;;0.52;0.30;;;20.80;49.80;;;;;;5021137;28;20057;-56
2022/12/31 02:08:12;;;;;;;0.77;0.40;;;20.70;49.80;;;;;;5023900;28;20025;-54
2022/12/31 02:10:38;;;;;;;0.20;0.20;;;20.70;49.80;;;;;;5018804;28;20022;-53
2022/12/31 02:13:04;;;;;;;0.47;0.30;;;20.80;49.80;;;;;;5022672;28;20056;-52
2022/12/31 02:15:38;;;;;;;0.80;0.30;;;20.80;49.90;;;;;;5022191;28;20025;-55
2022/12/31 02:18:21;;;;;;;0.60;0.20;;;20.80;49.90;;;;;;5022505;28;20476;-56
2022/12/31 02:21:18;;;;;;;0.55;0.30;;;20.70;49.80;;;;;;5020076;28;20022;-53
2022/12/31 02:23:47;;;;;;;0.52;0.22;;;20.70;49.90;;;;;;5024660;28;20037;-55
2022/12/31 02:26:54;;;;;;;0.20;0.20;;;20.70;49.90;;;;;;5020713;28;20022;-49
2022/12/31 02:30:00;;;;;;;0.68;0.30;;;20.70;49.90;;;;;;5021271;28;20051;-55
2022/12/31 02:32:49;;;;;;;0.65;0.28;;;20.70;49.90;;;;;;5024694;28;20065;-54
2022/12/31 02:35:25;;;;;;;0.70;0.30;;;20.70;50.00;;;;;;5018905;28;20026;-53
2022/12/31 02:37:56;;;;;;;0.50;0.30;;;20.70;50.00;;;;;;5006521;28;20040;-55
2022/12/31 02:40:22;;;;;;;0.63;0.32;;;20.70;50.00;;;;;;5021764;28;20032;-52
2022/12/31 02:42:48;;;;;;;0.47;0.22;;;20.70;50.00;;;;;;5024171;28;20057;-53
2022/12/31 02:45:20;;;;;;;0.40;0.20;;;20.70;50.00;;;;;;5002429;28;20053;-54
2022/12/31 02:48:10;;;;;;;0.50;0.30;;;20.70;50.00;;;;;;5023512;28;20113;-54
2022/12/31 02:50:59;;;;;;;0.77;0.30;;;20.70;50.10;;;;;;5023330;28;20033;-52
2022/12/31 02:53:30;;;;;;;0.38;0.28;;;20.70;50.10;;;;;;5025336;28;20055;-52
2022/12/31 02:56:17;;;;;;;0.57;0.28;;;20.60;50.00;;;;;;5018129;28;20461;-52
2022/12/31 03:04:31;;;;;;;0.20;0.20;;;20.60;50.10;;;;;;5020204;28;20021;-55
2022/12/31 03:07:12;;;;;;;0.93;0.30;;;20.60;50.10;;;;;;5017437;28;20056;-52
2022/12/31 03:09:38;;;;;;;0.55;0.30;;;20.60;50.10;;;;;;5026037;28;20025;-54
2022/12/31 03:14:54;;;;;;;1.05;0.47;;;20.60;50.10;;;;;;5023374;28;20045;-52
2022/12/31 03:17:21;;;;;;;0.77;0.30;;;20.60;50.10;;;;;;5003136;28;20079;-54
2022/12/31 03:22:38;;;;;;;0.70;0.30;;;20.60;50.10;;;;;;5025537;28;20464;-54
2022/12/31 03:25:34;;;;;;;0.90;0.35;;;20.60;50.10;;;;;;5021024;28;20464;-54
2022/12/31 03:28:08;;;;;;;0.60;0.20;;;20.60;50.20;;;;;;5022722;28;20030;-54
2022/12/31 03:30:36;;;;;;;0.85;0.30;;;20.60;50.10;;;;;;5026580;28;20033;-57
2022/12/31 03:33:05;;;;;;;0.43;0.30;;;20.60;50.20;;;;;;5022049;28;20042;-57
2022/12/31 03:35:32;;;;;;;0.55;0.28;;;20.60;50.10;;;;;;5023865;28;20352;-55
2022/12/31 03:37:59;;;;;;;0.50;0.20;;;20.50;50.10;;;;;;5024824;28;20141;-56
2022/12/31 03:40:27;;;;;;;0.80;0.40;;;20.50;50.10;;;;;;5024307;28;20029;-54
2022/12/31 03:42:53;;;;;;;0.60;0.30;;;20.50;50.10;;;;;;5022616;28;20104;-53
2022/12/31 03:45:19;;;;;;;0.88;0.40;;;20.50;50.10;;;;;;5032070;28;20029;-54
2022/12/31 03:47:46;;;;;;;0.93;0.28;;;20.50;50.10;;;;;;5026125;28;20044;-52
2022/12/31 03:50:15;;;;;;;0.60;0.28;;;20.50;50.10;;;;;;5020387;28;20119;-55
2022/12/31 03:52:41;;;;;;;0.30;0.20;;;20.50;50.70;;;;;;5026176;28;20041;-56
2022/12/31 03:55:08;;;;;;;0.70;0.30;;;20.50;50.10;;;;;;5023027;28;20037;-55
2022/12/31 03:57:34;;;;;;;0.77;0.28;;;20.50;50.10;;;;;;5027463;28;20030;-50
2022/12/31 04:00:00;;;;;;;1.30;0.40;;;20.50;50.10;;;;;;5023008;28;20030;-49
2022/12/31 04:02:25;;;;;;;0.95;0.30;;;20.50;50.10;;;;;;5022363;28;20145;-53
2022/12/31 04:04:51;;;;;;;0.77;0.30;;;20.50;50.10;;;;;;5029359;28;20021;-52
2022/12/31 04:07:17;;;;;;;0.65;0.28;;;20.50;50.20;;;;;;5026257;28;20614;-53
2022/12/31 04:09:43;;;;;;;0.63;0.20;;;20.50;50.20;;;;;;5026688;28;20052;-54
2022/12/31 04:12:09;;;;;;;0.38;0.20;;;20.50;50.20;;;;;;5022960;28;20054;-54
2022/12/31 04:14:34;;;;;;;0.15;0.15;;;20.50;50.20;;;;;;5027049;28;20061;-52
2022/12/31 04:17:00;;;;;;;0.40;0.22;;;20.50;50.20;;;;;;5023914;28;20441;-54
2022/12/31 04:19:26;;;;;;;0.32;0.25;;;20.50;50.20;;;;;;5023814;28;20501;-54
2022/12/31 04:21:52;;;;;;;1.05;0.30;;;20.50;50.30;;;;;;5025895;28;20033;-53
2022/12/31 04:24:18;;;;;;;0.40;0.30;;;20.50;50.20;;;;;;5026536;28;20033;-54
2022/12/31 04:26:44;;;;;;;0.20;0.20;;;20.50;50.30;;;;;;5021607;28;20119;-52
2022/12/31 04:29:10;;;;;;;0.65;0.25;;;20.50;50.30;;;;;;5021638;28;20065;-50
2022/12/31 04:31:36;;;;;;;0.75;0.30;;;20.50;50.30;;;;;;5025026;28;20074;-53
2022/12/31 04:34:02;;;;;;;0.60;0.40;;;20.50;50.40;;;;;;5025790;28;20030;-55
2022/12/31 04:36:28;;;;;;;0.80;0.30;;;20.50;50.40;;;;;;5019016;28;20033;-48
2022/12/31 04:38:54;;;;;;;0.38;0.25;;;20.50;50.40;;;;;;5027567;28;20488;-48
2022/12/31 04:41:20;;;;;;;0.20;0.20;;;20.50;50.40;;;;;;5020195;28;20037;-56
2022/12/31 04:43:51;;;;;;;0.20;0.20;;;20.50;50.40;;;;;;5022398;28;20445;-52
2022/12/31 04:46:23;;;;;;;0.38;0.30;;;20.40;50.40;;;;;;5023200;28;20029;-53
2022/12/31 04:48:49;;;;;;;0.40;0.20;;;20.40;50.40;;;;;;5022825;28;20072;-51
2022/12/31 04:51:15;;;;;;;0.70;0.30;;;20.40;50.50;;;;;;5025097;28;20057;-55
2022/12/31 04:53:41;;;;;;;0.40;0.25;;;20.40;50.50;;;;;;5025505;28;20033;-53
2022/12/31 04:56:07;;;;;;;1.05;0.30;;;20.40;50.50;;;;;;5024162;28;20040;-56
2022/12/31 04:58:34;;;;;;;0.28;0.17;;;20.40;50.50;;;;;;5024751;28;20025;-54
2022/12/31 05:01:00;;;;;;;0.17;0.17;;;20.40;50.60;;;;;;5025245;28;20065;-51
2022/12/31 05:03:26;;;;;;;1.08;0.40;;;20.40;50.50;;;;;;5025497;28;20448;-55
2022/12/31 05:05:53;;;;;;;0.55;0.30;;;20.40;50.60;;;;;;5022917;28;20361;-51
2022/12/31 05:08:19;;;;;;;0.35;0.20;;;20.40;50.60;;;;;;5023489;28;20036;-52
2022/12/31 05:10:47;;;;;;;0.40;0.10;;;20.40;50.60;;;;;;5020592;28;20393;-53
2022/12/31 05:13:14;;;;;;;0.70;0.20;;;20.40;50.70;;;;;;5023874;28;20055;-52
2022/12/31 05:15:40;;;;;;;0.30;0.13;;;20.40;50.70;;;;;;5021839;28;20037;-51
2022/12/31 05:18:07;;;;;;;0.50;0.20;;;20.40;50.70;;;;;;5025439;28;20026;-52
2022/12/31 05:20:33;;;;;;;0.20;0.20;;;20.40;50.80;;;;;;5008252;28;20038;-52
2022/12/31 05:22:59;;;;;;;0.35;0.20;;;20.40;50.80;;;;;;5020665;28;20033;-53
2022/12/31 05:25:25;;;;;;;0.63;0.28;;;20.40;50.80;;;;;;5025016;28;20037;-51
2022/12/31 05:27:52;;;;;;;0.15;0.13;;;20.40;50.80;;;;;;5023826;28;20492;-56
2022/12/31 05:30:18;;;;;;;0.43;0.20;;;20.40;50.90;;;;;;5019244;28;20499;-54
2022/12/31 05:32:45;;;;;;;0.17;0.13;;;20.40;50.90;;;;;;5020607;28;20042;-56
2022/12/31 05:35:11;;;;;;;0.28;0.20;;;20.40;51.00;;;;;;5002645;28;20047;-56
2022/12/31 05:37:37;;;;;;;0.20;0.13;;;20.40;51.00;;;;;;5020080;28;20449;-54
2022/12/31 05:40:05;;;;;;;0.80;0.30;;;20.40;51.10;;;;;;5023925;28;20425;-51
2022/12/31 05:42:30;;;;;;;0.22;0.10;;;20.40;51.10;;;;;;5023655;28;20026;-51
2022/12/31 05:44:56;;;;;;;0.70;0.10;;;20.40;51.10;;;;;;5024177;28;20033;-51
2022/12/31 05:47:22;;;;;;;0.10;0.10;;;20.40;51.20;;;;;;5025857;28;20586;-55
2022/12/31 05:49:48;;;;;;;0.10;0.10;;;20.40;51.20;;;;;;5023115;28;20112;-56
2022/12/31 05:52:14;;;;;;;0.10;0.10;;;20.30;51.20;;;;;;5020122;28;20120;-48
2022/12/31 05:54:40;;;;;;;0.40;0.10;;;20.40;51.30;;;;;;5019897;28;20416;-52
2022/12/31 05:57:06;;;;;;;0.17;0.10;;;20.30;51.30;;;;;;5020670;28;20113;-54
2022/12/31 05:59:33;;;;;;;0.10;0.10;;;20.30;51.30;;;;;;5020582;28;20492;-51
2022/12/31 06:01:59;;;;;;;0.63;0.13;;;20.40;51.40;;;;;;5020635;28;20410;-50
2022/12/31 06:04:25;;;;;;;0.30;0.10;;;20.30;51.30;;;;;;5025183;28;20591;-51
2022/12/31 06:06:51;;;;;;;0.47;0.20;;;20.30;51.30;;;;;;5020213;28;20026;-54
2022/12/31 06:09:18;;;;;;;0.10;0.10;;;20.40;51.40;;;;;;5024368;28;20065;-51
2022/12/31 06:11:45;;;;;;;0.22;0.10;;;20.30;51.40;;;;;;5023583;28;20481;-55
2022/12/31 06:14:11;;;;;;;0.00;0.00;;;20.30;51.40;;;;;;5021745;28;20052;-53
2022/12/31 06:16:38;;;;;;;0.10;0.10;;;20.30;51.50;;;;;;5022840;28;20034;-53
2022/12/31 06:19:04;;;;;;;0.25;0.10;;;20.30;51.50;;;;;;5022978;28;20030;-54
2022/12/31 06:21:30;;;;;;;0.50;0.10;;;20.30;51.50;;;;;;5019928;28;20032;-51
2022/12/31 06:23:57;;;;;;;0.17;0.13;;;20.30;51.50;;;;;;5022093;28;20034;-53
2022/12/31 06:26:24;;;;;;;0.00;0.00;;;20.30;51.50;;;;;;5019695;28;20021;-53
2022/12/31 06:28:50;;;;;;;0.10;0.10;;;20.30;51.50;;;;;;5022987;28;20175;-53
2022/12/31 06:31:16;;;;;;;0.13;0.10;;;20.30;51.60;;;;;;5022731;28;20112;-52
2022/12/31 06:33:42;;;;;;;0.13;0.10;;;20.30;51.60;;;;;;5022437;28;20476;-50
2022/12/31 06:36:11;;;;;;;0.10;0.10;;;20.30;51.60;;;;;;5016297;28;20130;-57
2022/12/31 06:38:42;;;;;;;0.00;0.00;;;20.30;51.70;;;;;;5017123;28;20355;-50
2022/12/31 06:41:10;;;;;;;0.00;0.00;;;20.30;51.70;;;;;;5023231;28;20022;-52
2022/12/31 06:43:37;;;;;;;0.00;0.00;;;20.30;51.80;;;;;;5016358;28;20112;-55
2022/12/31 06:46:04;;;;;;;0.00;0.00;;;20.30;51.80;;;;;;5018520;28;20061;-54
2022/12/31 06:48:31;;;;;;;0.05;0.05;;;20.30;51.90;;;;;;5028164;28;20036;-55
2022/12/31 06:51:02;;;;;;;0.30;0.10;;;20.30;51.90;;;;;;5019876;28;20030;-49
2022/12/31 06:53:27;;;;;;;0.30;0.10;;;20.30;52.00;;;;;;5018969;28;20038;-52
2022/12/31 06:55:53;;;;;;;0.10;0.10;;;20.30;52.10;;;;;;5022325;28;20029;-52
2022/12/31 06:58:20;;;;;;;0.20;0.10;;;20.30;52.20;;;;;;5020219;28;20036;-51
2022/12/31 07:01:12;;;;;;;0.20;0.00;;;20.30;52.20;;;;;;5004122;28;20034;-55
2022/12/31 07:04:22;;;;;;;0.20;0.10;;;20.30;52.40;;;;;;5020917;28;20106;-55
2022/12/31 07:06:57;;;;;;;0.20;0.10;;;20.30;52.40;;;;;;5021580;28;20021;-52
2022/12/31 07:09:50;;;;;;;0.10;0.10;;;20.20;52.50;;;;;;5017980;28;20397;-52
2022/12/31 07:12:28;;;;;;;0.25;0.00;;;20.20;52.60;;;;;;5018763;28;20060;-52
2022/12/31 07:15:08;;;;;;;0.20;0.10;;;20.20;52.70;;;;;;5019775;28;20742;-53
2022/12/31 07:17:43;;;;;;;0.30;0.10;;;20.20;52.80;;;;;;5024376;28;20065;-53
2022/12/31 07:20:17;;;;;;;0.10;0.10;;;20.20;53.00;;;;;;5017525;28;20034;-55
2022/12/31 07:22:44;;;;;;;0.10;0.10;;;20.30;53.10;;;;;;5009995;28;20029;-55
2022/12/31 07:25:16;;;;;;;0.38;0.10;;;20.20;53.10;;;;;;5020274;28;20160;-52
2022/12/31 07:27:48;;;;;;;0.75;0.00;;;20.20;53.30;;;;;;5018665;28;20036;-55
2022/12/31 07:30:27;;;;;;;0.47;0.20;;;20.20;53.30;;;;;;5019285;28;20057;-54
2022/12/31 07:33:14;;;;;;;0.68;0.13;;;20.20;53.40;;;;;;5016340;28;20046;-56
2022/12/31 07:35:47;;;;;;;0.30;0.10;;;20.20;53.40;;;;;;5021983;28;20092;-54
2022/12/31 07:38:51;;;;;;;0.45;0.10;;;20.20;53.50;;;;;;5019640;28;20025;-56
2022/12/31 07:41:38;;;;;;;1.20;0.10;;;20.20;53.50;;;;;;5022991;28;20046;-59
2022/12/31 07:44:25;;;;;;;0.10;0.08;;;20.20;53.60;;;;;;5019949;28;20029;-55
2022/12/31 07:46:56;;;;;;;0.43;0.10;;;20.20;53.70;;;;;;5019096;28;20044;-54
2022/12/31 07:49:24;;;;;;;0.30;0.10;;;20.20;53.70;;;;;;5021262;28;20454;-54
2022/12/31 07:51:50;;;;;;;0.57;0.20;;;20.20;53.80;;;;;;5019380;28;20065;-52
2022/12/31 07:54:16;;;;;;;0.55;0.25;;;20.20;53.90;;;;;;5016399;28;20033;-52
2022/12/31 07:56:43;;;;;;;0.40;0.28;;;20.20;53.90;;;;;;5018606;28;20310;-55
2022/12/31 07:59:32;;;;;;;0.32;0.20;;;20.20;54.00;;;;;;5021475;28;20049;-57
2022/12/31 08:02:04;;;;;;;0.20;0.20;;;20.20;54.00;;;;;;5019920;28;20026;-54
2022/12/31 08:04:53;;;;;;;0.10;0.03;;;20.20;54.00;;;;;;5018341;28;20045;-51
2022/12/31 08:07:43;;;;;;;0.10;0.10;;;20.20;54.10;;;;;;5019847;28;20080;-49
2022/12/31 08:10:55;;;;;;;0.20;0.20;;;20.20;54.10;;;;;;5022259;28;20030;-50
2022/12/31 08:13:20;;;;;;;0.30;0.10;;;20.20;54.20;;;;;;4987250;28;20167;-55
2022/12/31 08:15:47;;;;;;;0.05;0.05;;;20.20;54.20;;;;;;5027858;28;20489;-53
2022/12/31 08:18:13;;;;;;;0.55;0.20;;;20.20;54.30;;;;;;5026382;28;20099;-52
2022/12/31 08:20:48;;;;;;;0.10;0.10;;;20.20;54.40;;;;;;5026068;28;20038;-51
2022/12/31 08:23:26;;;;;;;0.20;0.20;;;20.20;54.40;;;;;;5028695;28;20040;-54
2022/12/31 08:26:01;;;;;;;1.48;0.10;;;20.20;54.40;;;;;;5021152;28;20044;-53
2022/12/31 08:28:53;;;;;;;0.32;0.20;;;20.20;54.40;;;;;;5022274;28;20492;-56
2022/12/31 08:31:48;;;;;;;0.80;0.20;;;20.20;54.30;;;;;;5024416;28;20113;-51
2022/12/31 08:34:37;;;;;;;0.40;0.10;;;20.20;54.30;;;;;;5017406;28;20072;-54
2022/12/31 08:37:19;;;;;;;1.92;0.20;;;20.20;54.30;;;;;;5026711;28;20025;-53
2022/12/31 08:39:56;;;;;;;0.57;0.20;;;20.20;54.20;;;;;;5029801;28;20064;-56
2022/12/31 08:42:48;;;;;;;3.58;0.30;;;20.20;54.20;;;;;;5027742;28;20201;-52
2022/12/31 08:45:30;;;;;;;0.75;0.20;;;20.20;54.20;;;;;;5027454;28;20033;-55
2022/12/31 08:48:02;;;;;;;1.65;0.32;;;20.20;54.20;;;;;;5018925;28;20081;-52
2022/12/31 08:50:28;;;;;;;0.82;0.28;;;20.30;54.20;;;;;;5027053;28;20044;-56
2022/12/31 08:52:54;;;;;;;0.68;0.20;;;20.30;54.20;;;;;;5017758;28;20204;-53
2022/12/31 08:55:21;;;;;;;0.30;0.00;;;20.30;54.20;;;;;;5028839;28;20025;-53
2022/12/31 08:58:30;;;;;;;0.40;0.20;;;20.40;54.20;;;;;;5018459;28;20349;-55
2022/12/31 09:00:58;;;;;;;1.48;0.20;;;20.40;54.10;;;;;;5026233;28;20421;-55
2022/12/31 09:03:30;;;;;;;0.43;0.20;;;20.50;54.00;;;;;;5007731;28;20034;-52
2022/12/31 09:06:16;;;;;;;0.75;0.30;;;20.50;53.90;;;;;;5017214;28;20044;-53
2022/12/31 09:09:05;;;;;;;1.85;0.30;;;20.60;53.80;;;;;;5011206;28;20353;-52
2022/12/31 09:11:49;;;;;;;0.93;0.17;;;20.70;53.80;;;;;;5026451;28;20041;-54
2022/12/31 09:14:31;;;;;;;1.52;0.20;;;20.70;53.70;;;;;;5027677;28;20033;-55
2022/12/31 09:17:03;;;;;;;0.65;0.20;;;20.80;53.50;;;;;;5025808;28;20033;-55
2022/12/31 09:19:29;;;;;;;0.50;0.30;;;20.90;53.40;;;;;;5033313;28;20033;-57
2022/12/31 09:21:55;;;;;;;1.13;0.40;;;21.00;53.40;;;;;;5027356;28;20045;-57
2022/12/31 09:24:29;;;;;;;0.45;0.20;;;21.00;53.20;;;;;;5027929;28;20064;-53
2022/12/31 09:27:15;;;;;;;0.57;0.25;;;21.10;53.10;;;;;;5024722;28;20029;-55
2022/12/31 09:30:05;;;;;;;0.30;0.20;;;21.20;53.30;;;;;;5023043;28;20103;-53
2022/12/31 09:32:52;;;;;;;1.38;0.30;;;21.20;53.40;;;;;;5003937;28;20061;-55
2022/12/31 09:35:36;;;;;;;0.45;0.20;;;21.30;53.40;;;;;;5023922;28;20495;-54
2022/12/31 09:38:29;;;;;;;1.40;0.30;;;21.40;53.30;;;;;;5024802;28;20030;-54
2022/12/31 09:41:29;;;;;;;0.50;0.20;;;21.40;53.10;;;;;;5033141;28;20405;-53
2022/12/31 09:44:32;;;;;;;1.20;0.10;;;21.50;53.00;;;;;;5027169;28;20052;-54
2022/12/31 09:47:23;;;;;;;0.35;0.20;;;21.60;52.80;;;;;;5008721;28;20025;-54
2022/12/31 09:50:22;;;;;;;1.20;0.30;;;21.60;52.70;;;;;;5023289;28;20453;-53
2022/12/31 09:53:06;;;;;;;0.32;0.20;;;21.70;52.50;;;;;;5025890;28;20038;-53
2022/12/31 09:55:47;;;;;;;0.22;0.20;;;21.70;52.40;;;;;;5022969;28;20036;-57
2022/12/31 09:58:36;;;;;;;0.88;0.38;;;21.80;52.30;;;;;;5026850;28;20022;-50
2022/12/31 10:01:21;;;;;;;0.20;0.10;;;21.80;52.20;;;;;;5007695;28;20366;-55
2022/12/31 10:03:59;;;;;;;;;;;21.90;52.10;;;;;;5027089;28;20028;-55
2022/12/31 10:06:37;;;;;;;0.50;0.25;;;21.90;52.10;;;;;;5027012;28;19913;-54
2022/12/31 10:09:30;;;;;;;0.43;0.30;;;21.90;52.00;;;;;;5024839;28;20022;-53
2022/12/31 10:12:02;;;;;;;1.45;0.30;;;22.00;52.00;;;;;;5020011;28;20585;-56
2022/12/31 10:15:01;;;;;;;0.45;0.20;;;22.00;51.90;;;;;;5019782;28;20033;-58
2022/12/31 10:17:45;;;;;;;0.55;0.28;;;22.00;51.90;;;;;;5028045;28;20021;-54
2022/12/31 10:20:29;;;;;;;1.05;0.22;;;22.10;52.00;;;;;;5025900;28;20108;-58
2022/12/31 10:23:26;;;;;;;1.20;0.30;;;22.10;52.00;;;;;;5012652;28;20030;-56
2022/12/31 10:25:58;;;;;;;0.50;0.30;;;22.20;51.90;;;;;;5024478;28;20025;-54
2022/12/31 10:28:40;;;;;;;1.00;0.40;;;22.20;51.80;;;;;;5014046;28;20396;-54
2022/12/31 10:31:32;;;;;;;0.28;0.20;;;22.20;51.80;;;;;;5017070;28;20077;-60
2022/12/31 10:34:38;;;;;;;1.90;0.50;;;22.20;51.70;;;;;;5032540;28;20037;-59
2022/12/31 10:37:18;;;;;;;2.05;0.25;;;22.20;51.60;;;;;;5023447;28;20037;-55
2022/12/31 10:40:05;;;;;;;3.65;0.43;;;22.20;51.60;;;;;;5023942;28;20499;-56
2022/12/31 10:43:09;;;;;;;0.22;0.22;;;22.30;51.60;;;;;;5035515;28;20469;-54
2022/12/31 10:45:56;;;;;;;0.50;0.20;;;22.30;51.60;;;;;;5023949;28;20042;-57
2022/12/31 10:48:53;;;;;;;1.70;0.30;;;22.30;51.50;;;;;;5021590;28;20042;-53
2022/12/31 10:51:37;;;;;;;1.40;0.30;;;22.30;51.60;;;;;;5006815;28;20030;-56
2022/12/31 10:54:21;;;;;;;0.80;0.30;;;22.30;51.70;;;;;;5024808;28;20429;-56
2022/12/31 10:57:11;;;;;;;1.05;0.45;;;22.30;51.90;;;;;;5007072;28;20491;-51
2022/12/31 10:59:49;;;;;;;1.05;0.30;;;22.30;52.20;;;;;;5018347;28;20037;-55
2022/12/31 11:02:46;;;;;;;1.27;0.50;;;22.30;52.30;;;;;;5022647;28;20100;-56
2022/12/31 11:05:36;;;;;;;0.45;0.30;;;22.30;52.30;;;;;;5018152;28;20084;-57
2022/12/31 11:08:27;;;;;;;0.57;0.30;;;22.30;52.90;;;;;;5021596;28;20036;-53
2022/12/31 11:11:19;;;;;;;1.02;0.40;;;22.30;52.30;;;;;;5021620;28;20345;-56
2022/12/31 11:13:56;;;;;;;0.88;0.40;;;22.30;52.30;;;;;;5022002;28;20362;-56
2022/12/31 11:16:41;;;;;;;0.43;0.30;;;22.30;52.30;;;;;;5020509;28;20041;-57
2022/12/31 11:19:28;;;;;;;0.80;0.40;;;22.30;52.30;;;;;;5026104;28;20037;-55
2022/12/31 11:22:18;;;;;;;1.02;0.47;;;22.30;52.20;;;;;;5018381;28;20034;-56
2022/12/31 11:25:12;;;;;;;0.88;0.50;;;22.30;52.20;;;;;;5024408;28;20033;-53
2022/12/31 11:28:32;;;;;;;1.15;0.40;;;22.30;52.20;;;;;;5024024;28;20053;-56
2022/12/31 11:31:11;;;;;;;0.70;0.30;;;22.30;52.20;;;;;;4945956;28;20039;-57
2022/12/31 11:34:11;;;;;;;0.70;0.40;;;22.30;52.20;;;;;;5006269;28;20060;-51
2022/12/31 11:37:08;;;;;;;1.02;0.40;;;22.30;52.20;;;;;;4952421;28;20042;-56
2022/12/31 11:39:46;;;;;;;1.45;0.52;;;22.20;52.20;;;;;;5023566;28;20034;-56
2022/12/31 11:42:21;;;;;;;1.02;0.52;;;22.20;52.20;;;;;;5025716;28;20115;-54
2022/12/31 11:45:15;;;;;;;1.75;0.50;;;22.30;52.30;;;;;;5025148;28;20034;-58
2022/12/31 11:48:11;;;;;;;1.37;0.60;;;22.20;52.20;;;;;;5026070;28;20120;-59
2022/12/31 11:50:47;;;;;;;1.45;0.70;;;22.20;52.20;;;;;;5025961;28;20100;-58
2022/12/31 11:53:41;;;;;;;1.65;0.60;;;22.30;52.50;;;;;;5025144;28;20075;-57
2022/12/31 11:56:18;;;;;;;2.08;0.60;;;22.20;52.60;;;;;;5032889;28;20057;-59
2022/12/31 11:58:49;;;;;;;1.30;0.50;;;22.30;52.60;;;;;;5031472;28;20048;-58
2022/12/31 12:01:32;;;;;;;2.83;0.55;;;22.30;52.50;;;;;;5012286;28;20029;-57
2022/12/31 12:03:58;;;;;;;1.08;0.40;;;22.30;52.50;;;;;;5029287;28;20021;-60
2022/12/31 12:06:31;;;;;;;0.70;0.40;;;22.30;52.50;;;;;;5033887;28;20153;-59
2022/12/31 12:09:05;;;;;;;1.00;0.50;;;22.30;52.40;;;;;;5031053;28;20037;-57
2022/12/31 12:11:36;;;;;;;1.25;0.60;;;22.30;52.30;;;;;;5025626;28;20054;-54
2022/12/31 12:14:28;;;;;;;0.98;0.40;;;22.30;52.30;;;;;;5027656;28;20046;-56
2022/12/31 12:16:56;;;;;;;1.17;0.50;;;22.30;52.20;;;;;;5027168;28;20034;-56
2022/12/31 12:19:26;;;;;;;1.30;0.60;;;22.30;52.20;;;;;;5008795;28;20056;-56
2022/12/31 12:21:52;;;;;;;1.25;0.60;;;22.30;52.20;;;;;;5026710;28;20109;-59
2022/12/31 12:24:28;;;;;;;1.33;0.40;;;22.30;52.10;;;;;;5032545;28;20453;-51
2022/12/31 12:26:56;;;;;;;0.85;0.45;;;22.40;52.00;;;;;;5021944;28;20048;-52
2022/12/31 12:29:27;;;;;;;1.33;0.50;;;22.40;51.90;;;;;;5025095;28;20064;-54
2022/12/31 12:32:05;;;;;;;1.17;0.60;;;22.40;51.80;;;;;;5021124;28;20052;-52
2022/12/31 12:34:34;;;;;;;1.98;0.40;;;22.40;51.60;;;;;;5024783;28;20454;-55
2022/12/31 12:37:00;;;;;;;1.40;0.40;;;22.40;51.50;;;;;;5026428;28;20345;-53
2022/12/31 12:39:33;;;;;;;1.13;0.50;;;22.40;51.40;;;;;;5021624;28;20391;-51
2022/12/31 12:42:04;;;;;;;0.98;0.40;;;22.40;51.30;;;;;;5025351;28;20072;-50
2022/12/31 12:44:30;;;;;;;1.23;0.88;;;22.50;51.30;;;;;;5024762;28;20025;-55
2022/12/31 12:46:57;;;;;;;0.60;0.50;;;22.40;51.20;;;;;;5020145;28;20080;-52
2022/12/31 12:49:31;;;;;;;1.67;0.75;;;22.40;51.20;;;;;;5021396;28;20021;-54
2022/12/31 12:52:25;;;;;;;2.58;0.70;;;22.40;51.20;;;;;;5026428;28;20349;-51
2022/12/31 12:55:25;;;;;;;1.35;0.60;;;22.40;51.10;;;;;;5003188;28;20067;-52
2022/12/31 12:57:59;;;;;;;1.50;0.70;;;22.40;51.10;;;;;;5024677;28;20469;-55
2022/12/31 13:01:00;;;;;;;1.85;0.63;;;22.40;51.10;;;;;;5023730;28;20083;-54
2022/12/31 13:04:19;;;;;;;1.02;0.45;;;22.40;51.00;;;;;;5015933;28;20037;-54
2022/12/31 13:07:18;;;;;;;1.25;0.68;;;22.40;51.00;;;;;;4930251;29;20192;-49
2022/12/31 13:09:55;;;;;;;2.13;0.88;;;22.40;51.00;;;;;;5019880;28;20040;-52
2022/12/31 13:12:37;;;;;;;1.58;0.80;;;22.40;51.00;;;;;;5021335;28;20045;-52
2022/12/31 13:15:09;;;;;;;3.40;0.80;;;22.40;51.00;;;;;;5023089;28;20033;-50
2022/12/31 13:17:58;;;;;;;2.17;0.80;;;22.40;51.00;;;;;;5022366;28;20091;-49
2022/12/31 13:21:02;;;;;;;3.30;0.95;;;22.50;51.00;;;;;;5003723;28;20041;-49
2022/12/31 13:23:45;;;;;;;1.15;0.55;;;22.40;50.90;;;;;;4962322;28;20035;-51
2022/12/31 13:26:40;;;;;;;1.90;0.73;;;22.50;50.90;;;;;;5023208;28;20056;-56
2022/12/31 13:29:15;;;;;;;1.90;0.70;;;22.50;51.00;;;;;;5028904;28;20077;-57
2022/12/31 13:31:43;;;;;;;2.83;0.80;;;22.50;51.00;;;;;;5040098;28;20467;-56
2022/12/31 13:34:36;;;;;;;2.08;0.88;;;22.60;51.10;;;;;;5035706;28;20075;-60
2022/12/31 13:37:12;;;;;;;4.20;0.80;;;22.70;51.10;;;;;;5023179;28;20033;-59
2022/12/31 13:39:41;;;;;;;2.05;0.63;;;22.70;51.00;;;;;;5017912;28;20061;-59
2022/12/31 13:42:31;;;;;;;1.40;0.60;;;22.80;51.50;;;;;;5017563;28;20025;-59
2022/12/31 13:45:08;;;;;;;1.83;0.77;;;23.00;50.80;;;;;;5015838;28;20033;-58